الصفحة الرئيسية
METAR-TAF:

METAR-TAF

مطار :

هونيارا, جوادالكانال, جزر سولومون

دائرة عرض: 09-25S, خط طول: 160-03E, ارتفاع: 8 متر

مراقبة الطقس الحالي

تاريخ ووقت الإصدار 52 دقيقة قبل الساعة 20:00UTC
درجة الحرارة
ضغط

METAR: AGGH 172000Z METAR

زمن: 07:52 (20:52 UTC)

توقعات

تاريخ ووقت الإصدار 3ساعات و 29 دقيقة قبل الساعة 17:23UTC
التوقعات صالحة من17 الساعة 18 UTC إلى 18 الساعة 18 UTC
ريح 10 عقدة من الشمال الشرقي
الرؤية 10 كم أو أكثر
غيوم متفرقة على ارتفاع 1800 قدم
نظرية الاحتمالات 30%
بين IN و TE UTC
الرؤية: 1007 متر
غيوم مفككة على ارتفاع 1500 قدم
غيوم قليلة على ارتفاع 1600 قدم, مزنة ركامية.

TAF: AGGH 171723Z 1718/1818 05010KT 9999 SCT018 PROB30 INTER 1801/1806 8000 -TSSH BKN015 FEW016CB T 23 26 31 32 Q 1007 1009 1009 1007

أرصاد الطقس والتوقعات من أكثر من 4000 مطار (تقارير الطقس للمطار METAR والتنبؤ بالطقس بالمطارTAF).

المحطات المتاحة هي النقط الصفراء والحمراء على الخريطة.

حرك المؤشر فوق النقطة لمعرفة اسم المحطة.

ثم انقر لمعرفة أرصاد وتوقعات الطقس.

لتغيير الخارطة: اضغط على الأزرار الخضراء مع رمز الصليب الأسود للتكبير. على الزر الأخضر مع شرطة للتصغير، أو على الأسهم الخضراء للخرائط المجاورة.


METAR-TAF: